createdAt,value
2022-11-25T00:02:12.307Z,43.50
2022-11-25T00:07:14.219Z,50.40
2022-11-25T00:12:22.582Z,46.60
2022-11-25T00:17:24.564Z,52.20
2022-11-25T00:22:26.519Z,50.90
2022-11-25T00:27:28.390Z,42.20
2022-11-25T00:32:32.930Z,44.10
2022-11-25T00:37:34.790Z,53.50
2022-11-25T00:42:58.259Z,49.80
2022-11-25T00:48:06.694Z,43.80
2022-11-25T00:53:08.740Z,40.70
2022-11-25T00:58:10.620Z,43.50
2022-11-25T01:03:13.695Z,42.70
2022-11-25T01:08:15.619Z,44.70
2022-11-25T01:13:17.449Z,41.80
2022-11-25T01:18:19.329Z,43.30
2022-11-25T01:23:21.221Z,41.10
2022-11-25T01:28:23.197Z,37.20
2022-11-25T01:33:28.815Z,42.20
2022-11-25T01:38:34.820Z,35.90
2022-11-25T01:43:37.304Z,37.70
2022-11-25T01:48:46.587Z,39.90
2022-11-25T01:53:49.348Z,40.40
2022-11-25T01:58:52.178Z,36.10
2022-11-25T02:03:57.503Z,41.00
2022-11-25T02:09:04.956Z,40.60
2022-11-25T02:14:08.550Z,36.00
2022-11-25T02:19:22.429Z,38.40
2022-11-25T02:24:39.199Z,33.70
2022-11-25T02:29:43.780Z,42.60
2022-11-25T02:34:49.769Z,39.00
2022-11-25T02:39:53.539Z,37.70
2022-11-25T02:44:55.359Z,35.20
2022-11-25T02:49:59.196Z,34.60
2022-11-25T02:55:01.088Z,33.00
2022-11-25T03:00:05.105Z,36.80
2022-11-25T03:05:07.241Z,35.20
2022-11-25T03:10:09.492Z,36.70
2022-11-25T03:15:12.360Z,36.30
2022-11-25T03:20:15.359Z,35.70
2022-11-25T03:25:17.433Z,32.90
2022-11-25T03:30:22.320Z,35.20
2022-11-25T03:35:25.289Z,37.00
2022-11-25T03:40:28.358Z,39.30
2022-11-25T03:45:30.325Z,31.60
2022-11-25T03:50:33.795Z,35.30
2022-11-25T03:55:35.796Z,34.40
2022-11-25T04:00:39.650Z,36.40
2022-11-25T04:05:42.085Z,34.10
2022-11-25T04:10:44.011Z,32.00
2022-11-25T04:15:47.503Z,35.00
2022-11-25T04:20:50.065Z,32.50
2022-11-25T04:25:52.327Z,33.30
2022-11-25T04:30:58.942Z,33.70
2022-11-25T04:36:00.950Z,29.10
2022-11-25T04:41:02.992Z,32.10
2022-11-25T04:46:15.402Z,31.40
2022-11-25T04:51:20.357Z,30.80
2022-11-25T04:56:25.301Z,29.80
2022-11-25T05:01:28.568Z,34.00
2022-11-25T05:06:36.926Z,35.10
2022-11-25T05:11:39.164Z,32.30
2022-11-25T05:16:41.121Z,29.70
2022-11-25T05:21:44.267Z,32.90
2022-11-25T05:26:46.795Z,34.70
2022-11-25T05:31:49.031Z,33.00
2022-11-25T05:36:52.066Z,30.40
2022-11-25T05:41:54.575Z,31.50
2022-11-25T05:46:56.483Z,31.90
2022-11-25T05:51:58.951Z,31.10
2022-11-25T05:57:01.202Z,33.90
2022-11-25T06:02:20.778Z,34.60
2022-11-25T06:07:22.864Z,34.30
2022-11-25T06:12:24.848Z,35.50
2022-11-25T06:17:26.741Z,34.30
2022-11-25T06:22:37.548Z,33.70
2022-11-25T06:28:04.954Z,31.70
2022-11-25T06:33:01.447Z,29.70
2022-11-25T06:38:03.519Z,31.70
2022-11-25T06:43:05.492Z,29.20
2022-11-25T06:48:07.305Z,28.50
2022-11-25T06:53:09.143Z,29.50
2022-11-25T06:58:34.455Z,33.50
2022-11-25T07:03:33.068Z,35.30
2022-11-25T07:08:34.996Z,34.40
2022-11-25T07:13:36.943Z,36.60
2022-11-25T07:18:39.712Z,36.70
2022-11-25T07:23:43.141Z,41.60
2022-11-25T07:28:45.607Z,43.30
2022-11-25T07:33:47.640Z,47.90
2022-11-25T07:38:49.920Z,46.70
2022-11-25T07:43:54.617Z,39.80
2022-11-25T07:49:00.670Z,37.80
2022-11-25T07:54:05.558Z,37.10
2022-11-25T07:59:11.347Z,33.60
2022-11-25T08:04:19.859Z,35.30
2022-11-25T08:09:23.877Z,30.30
2022-11-25T08:14:26.686Z,33.20
2022-11-25T08:19:31.598Z,34.50
2022-11-25T08:24:33.478Z,34.70
2022-11-25T08:29:35.778Z,33.10
2022-11-25T08:34:37.952Z,30.50
2022-11-25T08:39:56.438Z,27.80
2022-11-25T08:44:58.588Z,26.50
2022-11-25T08:50:00.468Z,26.60
2022-11-25T08:55:02.308Z,25.80
2022-11-25T09:00:08.292Z,26.00
2022-11-25T09:05:14.252Z,22.90
2022-11-25T09:10:17.875Z,23.70
2022-11-25T09:15:19.759Z,21.70
2022-11-25T09:20:21.754Z,23.90
2022-11-25T09:25:23.713Z,24.90
2022-11-25T09:30:26.551Z,22.20
2022-11-25T09:35:28.666Z,22.90
2022-11-25T09:40:42.400Z,21.60
2022-11-25T09:46:38.660Z,20.30
2022-11-25T09:51:56.763Z,19.90
2022-11-25T09:57:09.205Z,21.60
2022-11-25T10:02:20.479Z,19.70
2022-11-25T10:07:35.028Z,19.90
2022-11-25T10:12:43.620Z,17.90
2022-11-25T10:17:51.635Z,20.60
2022-11-25T10:23:11.958Z,21.60
2022-11-25T10:28:23.350Z,19.60
2022-11-25T10:33:29.032Z,18.30
2022-11-25T10:38:39.857Z,19.10
2022-11-25T10:43:43.190Z,19.50
2022-11-25T10:49:00.605Z,17.30
2022-11-25T10:54:09.236Z,18.00
2022-11-25T10:59:35.898Z,18.90
2022-11-25T11:05:09.520Z,15.10
2022-11-25T11:10:14.422Z,14.80
2022-11-25T11:15:23.185Z,16.40
2022-11-25T11:20:30.411Z,15.00
2022-11-25T11:25:35.625Z,13.00
2022-11-25T11:30:37.499Z,13.60
2022-11-25T11:35:52.826Z,16.50
2022-11-25T11:41:20.084Z,15.40
2022-11-25T11:46:42.047Z,15.40
2022-11-25T11:51:50.934Z,14.30
2022-11-25T11:57:14.868Z,15.30
2022-11-25T12:02:35.544Z,15.00
2022-11-25T12:08:14.862Z,12.60
2022-11-25T12:13:19.472Z,14.90
2022-11-25T12:18:49.905Z,13.50
2022-11-25T12:24:04.484Z,14.20
2022-11-25T12:29:12.186Z,13.30
2022-11-25T12:34:21.690Z,12.80
2022-11-25T12:39:40.736Z,13.50
2022-11-25T12:44:59.467Z,11.80
2022-11-25T12:50:01.888Z,13.30
2022-11-25T12:55:13.779Z,10.70
2022-11-25T13:06:10.751Z,10.10
2022-11-25T13:11:27.849Z,13.30
2022-11-25T13:16:32.080Z,10.10
2022-11-25T13:21:34.496Z,10.10
2022-11-25T13:26:48.560Z,11.30
2022-11-25T13:31:59.417Z,9.80
2022-11-25T13:37:22.910Z,11.50
2022-11-25T13:42:26.813Z,10.20
2022-11-25T13:47:28.605Z,10.40
2022-11-25T13:52:41.495Z,11.00
2022-11-25T13:58:04.175Z,11.70
2022-11-25T14:03:18.475Z,11.40
2022-11-25T14:08:32.687Z,11.20
2022-11-25T14:13:40.420Z,10.50
2022-11-25T14:19:28.497Z,22.40
2022-11-25T14:24:28.133Z,14.00
2022-11-25T14:29:32.999Z,15.40
2022-11-25T14:34:45.354Z,15.10
2022-11-25T14:40:01.628Z,14.90
2022-11-25T14:45:04.029Z,23.80
2022-11-25T14:55:37.178Z,20.70
2022-11-25T15:01:10.196Z,19.50
2022-11-25T15:06:14.086Z,19.00
2022-11-25T15:11:22.777Z,20.90
2022-11-25T15:16:55.009Z,26.20
2022-11-25T15:22:22.531Z,22.50
2022-11-25T15:27:27.953Z,22.30
2022-11-25T15:32:38.014Z,23.80
2022-11-25T15:37:39.813Z,25.60
2022-11-25T15:42:42.407Z,27.90
2022-11-25T15:47:45.084Z,25.40
2022-11-25T15:52:51.104Z,27.90
2022-11-25T15:57:54.429Z,23.10
2022-11-25T16:02:58.310Z,21.40
2022-11-25T16:08:32.498Z,24.40
2022-11-25T16:13:36.631Z,24.60
2022-11-25T16:18:41.621Z,26.10
2022-11-25T16:24:12.796Z,25.60
2022-11-25T16:29:22.590Z,25.90
2022-11-25T16:34:24.403Z,30.40
2022-11-25T16:39:26.282Z,30.00
2022-11-25T16:44:28.678Z,29.60
2022-11-25T16:49:31.518Z,30.40
2022-11-25T16:54:34.073Z,30.50
2022-11-25T16:59:40.102Z,31.40
2022-11-25T17:04:42.047Z,28.80
2022-11-25T17:09:45.092Z,30.50
2022-11-25T17:14:48.296Z,35.70
2022-11-25T17:19:50.304Z,35.50
2022-11-25T17:24:52.814Z,35.30
2022-11-25T17:29:56.587Z,33.40
2022-11-25T17:34:58.388Z,29.70
2022-11-25T17:40:00.236Z,30.70
2022-11-25T17:45:02.175Z,31.10
2022-11-25T17:50:21.462Z,31.10
2022-11-25T17:55:23.302Z,30.60
2022-11-25T18:00:25.449Z,29.70
2022-11-25T18:05:28.635Z,31.30
2022-11-25T18:10:30.641Z,30.20
2022-11-25T18:15:34.186Z,42.30
2022-11-25T18:20:35.995Z,28.80
2022-11-25T18:25:40.432Z,26.10
2022-11-25T18:30:42.879Z,28.40
2022-11-25T18:35:46.451Z,27.10
2022-11-25T18:40:53.259Z,30.10
2022-11-25T18:45:55.958Z,29.30
2022-11-25T18:50:57.833Z,30.80
2022-11-25T18:55:59.957Z,28.70
2022-11-25T19:01:04.791Z,30.90
2022-11-25T19:06:07.212Z,29.30
2022-11-25T19:11:19.267Z,31.70
2022-11-25T19:16:22.774Z,30.00
2022-11-25T19:21:24.748Z,27.90
2022-11-25T19:26:30.391Z,27.80
2022-11-25T19:31:33.505Z,25.20
2022-11-25T19:36:37.739Z,22.00
2022-11-25T19:41:39.602Z,20.50
2022-11-25T19:47:13.660Z,22.80
2022-11-25T19:52:21.453Z,22.20
2022-11-25T19:57:25.267Z,20.10
2022-11-25T20:02:27.261Z,20.90
2022-11-25T20:07:31.249Z,19.30
2022-11-25T20:12:33.219Z,19.70
2022-11-25T20:17:37.650Z,17.90
2022-11-25T20:22:43.631Z,19.30
2022-11-25T20:27:45.460Z,19.60
2022-11-25T20:32:47.359Z,19.10
2022-11-25T20:37:58.062Z,19.30
2022-11-25T20:43:00.517Z,18.40
2022-11-25T20:48:02.442Z,24.80
2022-11-25T20:53:04.385Z,29.40
2022-11-25T20:58:19.273Z,30.70
2022-11-25T21:03:21.501Z,28.70
2022-11-25T21:08:25.974Z,27.00
2022-11-25T21:13:30.133Z,25.30
2022-11-25T21:18:31.961Z,23.60
2022-11-25T21:23:36.591Z,23.00
2022-11-25T21:28:44.157Z,22.20
2022-11-25T21:33:47.257Z,27.10
2022-11-25T21:38:52.863Z,23.90
2022-11-25T21:43:54.865Z,22.80
2022-11-25T21:48:56.719Z,22.10
2022-11-25T21:53:58.528Z,22.80
2022-11-25T21:59:05.633Z,24.40
2022-11-25T22:04:13.067Z,26.10
2022-11-25T22:09:19.281Z,28.70
2022-11-25T22:14:28.797Z,26.90
2022-11-25T22:19:31.488Z,25.20
2022-11-25T22:24:33.929Z,27.40
2022-11-25T22:29:36.774Z,29.50
2022-11-25T22:34:39.683Z,29.60
2022-11-25T22:39:41.974Z,26.60
2022-11-25T22:44:47.031Z,28.40
2022-11-25T22:49:49.850Z,27.30
2022-11-25T22:54:51.802Z,31.90
2022-11-25T22:59:53.620Z,30.20
2022-11-25T23:04:56.662Z,28.80
2022-11-25T23:09:58.478Z,32.20
2022-11-25T23:15:00.269Z,31.10
2022-11-25T23:20:02.174Z,32.80
2022-11-25T23:25:12.159Z,30.50
2022-11-25T23:30:19.631Z,32.80
2022-11-25T23:35:36.348Z,31.50
2022-11-25T23:40:38.990Z,29.00
2022-11-25T23:45:52.615Z,28.70
2022-11-25T23:50:57.050Z,29.40
2022-11-25T23:55:58.995Z,27.80
